AirNav   Bose ProFlight Series 2 Headset
 
 1283 users online  

43FD Cole's Seaplane Base
Kissimmee, Florida, USA

GOING TO KISSIMMEE?


FAA INFORMATION EFFECTIVE 26 MARCH 2020

Location

FAA Identifier: 43FD
Lat/Long: 28-17-28.0000N 081-23-14.0000W
28-17.466667N 081-23.233333W
28.2911111,-81.3872222
(estimated)
Elevation: 53 ft. / 16 m (estimated)
Variation: 03W (1990)
From city: 2 miles E of KISSIMMEE, FL
Time zone: UTC -4 (UTC -5 during Standard Time)
Zip code: 34744

Seaplane Base Operations

Seaplane Base use: Private use. Permission required prior to landing
Activation date: 02/1992
Control tower: no
ARTCC: JACKSONVILLE CENTER
FSS: SAINT PETERSBURG FLIGHT SERVICE STATION
Attendance: 0600-2000
Segmented circle: no

Seaplane Base Communications

WX AWOS-3PT at ISM (2.6 nm W): 128.775 (407-847-0533)
WX ASOS at MCO (9 nm NE): PHONE 407-855-5235
WX ASOS at ORL (16 nm N): PHONE 407-658-6753

Nearby radio navigation aids

VOR radial/distance  VOR name  Freq  Var
ORLr190/15.3ORLANDO VORTAC112.2000E
LALr060/37.9LAKELAND VORTAC116.0001E

Seaplane Base Services

Runway Information

Runway ALL/WAY

Dimensions: 4500 x 4500 ft. / 1372 x 1372 m
Surface: water
RUNWAY ALL  RUNWAY WAY
Traffic pattern: leftleft

Seaplane Base Ownership and Management from official FAA records

Ownership: Privately-owned
Owner: WILLARD A. COLE
1444 NEPTUNE ROAD
KISSIMMEE, FL 34744
Phone 407-846-6831
Manager: WILLARD A. COLE
1444 NEPTUNE ROAD
KISSIMMEE, FL 34744
Phone 407-846-6831

Seaplane Base Operational Statistics

Aircraft based on the field: 4
Single engine airplanes: 2
Ultralights: 2
    

Additional Remarks

A52-ALL 50 FT PLINE 400 YARDS NORTH OF LANDING FACILITY.
FOR CD CTC ORLANDO APCH AT 407-852-7553.

Instrument Procedures

There are no published instrument procedures at 43FD.

Some nearby airports with instrument procedures:

KISM - Kissimmee Gateway Airport (3 nm W)
KMCO - Orlando International Airport (9 nm NE)
KORL - Executive Airport (16 nm N)
KGIF - Winter Haven Regional Airport (24 nm SW)
X07 - Lake Wales Municipal Airport (27 nm SW)
 
Loc | Ops | Rwys | IFR | FBO | Links
Com | Nav | Svcs | Stats | Notes


 
Area around 43FD (Cole's Seaplane Base)
 
Road maps at: MapQuest Bing Google
 
Aerial photo
No photo
 
Sectional chart

 
Airport distance calculator
Flying to Cole's Seaplane Base? Find the distance to fly.

From to 43FD

Sunrise and sunset
Times for 31-Mar-2020
 Local
(UTC-4)
 Zulu
(UTC)
Morning civil twilight06:5310:53
Sunrise07:1711:17
Sunset19:4223:42
Evening civil twilight20:0600:06

Current date and time
Zulu (UTC)  31-Mar-2020 16:58:55
Local (UTC-4)  31-Mar-2020 12:58:55
 
METAR
KISM 
2nm W 
311615Z 24014KT 10SM FEW001 SCT028 BKN050 29/20 A2989 RMK AO2 PNO $
KMCO 
8nm N 
311653Z 23014G30KT 10SM SCT038 BKN250 30/18 A2986 RMK AO2 PK WND 21030/1650 SLP108 T03000183
KORL 
16nm N 
311653Z 24013G23KT 10SM FEW042 29/18 A2985 RMK AO2 SLP111 T02940178
TAF
KISM 
2nm W 
311123Z 3112/0112 23005KT P6SM FEW040 FM311400 23011KT P6SM SCT035 BKN250 FM311700 24015G22KT P6SM SCT050 BKN250 FM010200 25011G18KT P6SM VCSH SCT025 BKN040 FM010600 29010KT P6SM SCT020 BKN040
KMCO 
8nm N 
311503Z 3115/0118 24012G19KT P6SM SCT025 BKN250 FM311700 24015G22KT P6SM SCT050 BKN250 FM010200 25011G18KT P6SM VCSH SCT025 BKN040 FM010600 29010KT P6SM SCT020 BKN040 FM011400 33011KT P6SM SKC
NOTAMs
Click for the latest NOTAMs
NOTAMs are issued by the DoD/FAA and will open in a separate window not controlled by AirNav.

 

 
 

Would you like to see your business listed on this page?

 If your business provides an interesting product or service to pilots, flight crews, aircraft, or users of the Cole's Seaplane Base, you should consider listing it here.  To start the listing process, click on the button below
 
Add a business
 

Other Pages about Cole's Seaplane Base

Update a link
 
Copyright © AirNav, LLC. All rights reserved. Privacy Policy  Contact